createdAt,value
2019-05-07T00:07:34.597Z,33.70
2019-05-07T00:12:38.886Z,33.33
2019-05-07T00:17:43.036Z,29.60
2019-05-07T00:22:47.563Z,35.65
2019-05-07T00:27:52.402Z,26.40
2019-05-07T00:32:56.576Z,29.75
2019-05-07T00:38:05.412Z,32.00
2019-05-07T00:43:14.122Z,30.48
2019-05-07T00:48:18.515Z,31.75
2019-05-07T00:53:23.774Z,34.92
2019-05-07T00:58:27.931Z,34.38
2019-05-07T01:03:32.830Z,30.27
2019-05-07T01:08:37.010Z,28.83
2019-05-07T01:13:43.064Z,35.38
2019-05-07T01:18:47.413Z,25.30
2019-05-07T01:28:59.648Z,26.95
2019-05-07T01:34:23.096Z,29.77
2019-05-07T01:39:27.345Z,33.02
2019-05-07T01:44:32.571Z,29.70
2019-05-07T01:49:37.214Z,26.52
2019-05-07T01:54:42.563Z,27.60
2019-05-07T01:59:47.167Z,30.75
2019-05-07T02:05:04.814Z,23.18
2019-05-07T02:10:16.307Z,28.83
2019-05-07T02:15:22.508Z,28.20
2019-05-07T02:20:26.521Z,27.85
2019-05-07T02:25:32.765Z,26.42
2019-05-07T02:30:37.444Z,26.97
2019-05-07T02:35:43.965Z,25.48
2019-05-07T02:40:53.427Z,26.85
2019-05-07T02:46:36.022Z,26.15
2019-05-07T02:51:48.952Z,30.32
2019-05-07T02:56:53.538Z,25.88
2019-05-07T03:07:13.179Z,27.73
2019-05-07T03:12:17.909Z,26.15
2019-05-07T03:17:24.661Z,26.30
2019-05-07T03:22:29.277Z,26.68
2019-05-07T03:27:34.390Z,27.22
2019-05-07T03:32:47.700Z,27.30
2019-05-07T03:37:49.284Z,25.90
2019-05-07T03:42:53.795Z,29.87
2019-05-07T03:53:16.849Z,28.87
2019-05-07T03:58:23.491Z,26.40
2019-05-07T04:03:27.167Z,31.87
2019-05-07T04:08:33.478Z,25.65
2019-05-07T04:13:36.927Z,29.50
2019-05-07T04:18:43.684Z,30.02
2019-05-07T04:23:48.703Z,29.25
2019-05-07T04:29:05.967Z,25.17
2019-05-07T04:34:18.986Z,26.40
2019-05-07T04:39:23.504Z,25.70
2019-05-07T04:44:27.897Z,22.75
2019-05-07T04:49:33.149Z,23.47
2019-05-07T04:54:37.645Z,19.48
2019-05-07T04:59:42.834Z,23.10
2019-05-07T05:04:47.385Z,27.60
2019-05-07T05:09:53.142Z,26.40
2019-05-07T05:14:57.598Z,29.87
2019-05-07T05:20:03.553Z,29.85
2019-05-07T05:25:26.841Z,25.15
2019-05-07T05:30:44.433Z,23.03
2019-05-07T05:35:49.282Z,21.20
2019-05-07T05:40:53.798Z,20.27
2019-05-07T05:51:24.574Z,19.45
2019-05-07T05:56:37.465Z,20.88
2019-05-07T06:02:04.476Z,20.20
2019-05-07T06:07:14.705Z,21.95
2019-05-07T06:12:38.006Z,25.17
2019-05-07T06:18:17.676Z,23.73
2019-05-07T06:23:33.024Z,22.87
2019-05-07T06:28:37.233Z,22.45
2019-05-07T06:33:42.972Z,21.45
2019-05-07T06:39:03.140Z,24.60
2019-05-07T06:44:12.787Z,21.90
2019-05-07T06:49:18.462Z,20.37
2019-05-07T06:54:22.776Z,22.02
2019-05-07T06:59:35.268Z,22.52
2019-05-07T07:04:46.660Z,20.97
2019-05-07T07:10:03.511Z,21.40
2019-05-07T07:15:08.569Z,21.27
2019-05-07T07:20:13.022Z,21.17
2019-05-07T07:25:17.264Z,19.30
2019-05-07T07:30:32.592Z,15.48
2019-05-07T07:35:36.975Z,23.50
2019-05-07T07:40:45.150Z,19.55
2019-05-07T07:45:49.194Z,20.02
2019-05-07T07:50:53.804Z,13.22
2019-05-07T08:01:42.163Z,13.35
2019-05-07T08:06:48.143Z,12.70
2019-05-07T08:11:52.764Z,15.63
2019-05-07T08:22:02.598Z,13.58
2019-05-07T08:27:06.302Z,7.78
2019-05-07T08:32:22.421Z,9.03
2019-05-07T08:37:27.059Z,8.90
2019-05-07T08:42:32.045Z,7.35
2019-05-07T08:47:42.530Z,9.50
2019-05-07T08:52:46.582Z,6.95
2019-05-07T08:57:52.463Z,6.30
2019-05-07T09:02:56.882Z,10.72
2019-05-07T09:08:02.278Z,12.55
2019-05-07T09:13:06.704Z,10.10
2019-05-07T09:18:12.428Z,10.68
2019-05-07T09:23:16.862Z,14.60
2019-05-07T09:28:22.310Z,11.08
2019-05-07T09:33:39.049Z,6.22
2019-05-07T09:38:56.106Z,7.65
2019-05-07T09:43:51.733Z,6.33
2019-05-07T09:48:55.517Z,6.78
2019-05-07T09:53:59.799Z,2.75
2019-05-07T09:59:04.046Z,2.55
2019-05-07T10:04:10.474Z,4.87
2019-05-07T10:09:15.109Z,4.08
2019-05-07T10:19:22.856Z,8.98
2019-05-07T10:24:26.922Z,5.58
2019-05-07T10:29:32.585Z,4.25
2019-05-07T10:34:36.695Z,7.75
2019-05-07T10:39:42.903Z,8.33
2019-05-07T10:45:07.573Z,5.35
2019-05-07T10:50:38.900Z,6.08
2019-05-07T10:55:36.354Z,5.20
2019-05-07T11:00:42.107Z,7.47
2019-05-07T11:05:46.580Z,4.95
2019-05-07T11:10:52.157Z,5.25
2019-05-07T11:16:05.580Z,6.10
2019-05-07T11:21:11.862Z,8.48
2019-05-07T11:26:16.134Z,8.35
2019-05-07T11:31:22.366Z,9.68
2019-05-07T11:36:26.729Z,6.95
2019-05-07T11:41:38.001Z,7.60
2019-05-07T11:47:03.101Z,7.42
2019-05-07T11:52:14.886Z,9.95
2019-05-07T11:57:18.185Z,9.23
2019-05-07T12:02:22.748Z,9.18
2019-05-07T12:07:27.067Z,10.78
2019-05-07T12:12:32.568Z,7.53
2019-05-07T12:17:36.762Z,7.15
2019-05-07T12:22:47.086Z,8.13
2019-05-07T12:27:52.885Z,10.80
2019-05-07T12:33:08.229Z,8.05
2019-05-07T12:38:12.839Z,8.28
2019-05-07T12:48:21.742Z,8.23
2019-05-07T12:53:43.460Z,9.40
2019-05-07T12:58:47.554Z,6.33
2019-05-07T13:04:02.502Z,9.33
2019-05-07T13:09:07.271Z,9.95
2019-05-07T13:14:12.587Z,7.87
2019-05-07T13:19:17.084Z,7.87
2019-05-07T13:24:22.796Z,8.28
2019-05-07T13:29:27.078Z,10.72
2019-05-07T13:34:33.793Z,7.42
2019-05-07T13:39:45.598Z,9.20
2019-05-07T13:45:03.517Z,7.45
2019-05-07T13:50:08.069Z,7.40
2019-05-07T13:55:14.044Z,8.45
2019-05-07T14:00:26.897Z,10.65
2019-05-07T14:05:32.345Z,8.08
2019-05-07T14:10:36.704Z,8.68
2019-05-07T14:15:43.000Z,7.67
2019-05-07T14:20:47.347Z,8.23
2019-05-07T14:25:52.657Z,12.45
2019-05-07T14:30:58.251Z,16.73
2019-05-07T14:36:07.976Z,9.28
2019-05-07T14:41:13.610Z,11.73
2019-05-07T14:46:20.130Z,8.05
2019-05-07T14:51:24.345Z,7.70
2019-05-07T14:56:28.727Z,9.78
2019-05-07T15:01:34.175Z,9.70
2019-05-07T15:11:42.455Z,8.78
2019-05-07T15:16:47.728Z,9.95
2019-05-07T15:21:55.174Z,10.58
2019-05-07T15:27:03.552Z,10.55
2019-05-07T15:32:12.659Z,9.78
2019-05-07T15:37:16.781Z,11.68
2019-05-07T15:42:22.150Z,12.03
2019-05-07T15:47:34.388Z,11.68
2019-05-07T15:53:08.362Z,11.78
2019-05-07T15:58:14.295Z,12.70
2019-05-07T16:03:23.576Z,10.50
2019-05-07T16:08:31.894Z,10.80
2019-05-07T16:13:37.859Z,12.65
2019-05-07T16:19:01.926Z,12.82
2019-05-07T16:24:06.404Z,7.75
2019-05-07T16:29:13.029Z,12.58
2019-05-07T16:34:16.594Z,10.13
2019-05-07T16:39:22.182Z,8.85
2019-05-07T16:44:26.395Z,11.45
2019-05-07T16:49:31.869Z,12.93
2019-05-07T16:54:36.437Z,9.93
2019-05-07T16:59:42.721Z,11.15
2019-05-07T17:05:05.563Z,14.65
2019-05-07T17:10:11.702Z,13.38
2019-05-07T17:15:16.528Z,10.95
2019-05-07T17:20:22.012Z,11.45
2019-05-07T17:25:38.138Z,12.15
2019-05-07T17:30:42.286Z,15.50
2019-05-07T17:35:46.430Z,9.98
2019-05-07T17:40:52.130Z,15.60
2019-05-07T17:45:56.769Z,14.33
2019-05-07T17:51:25.897Z,11.78
2019-05-07T17:56:31.914Z,12.10
2019-05-07T18:01:54.169Z,12.65
2019-05-07T18:07:00.418Z,13.75
2019-05-07T18:12:05.065Z,16.12
2019-05-07T18:17:35.140Z,17.32
2019-05-07T18:22:39.103Z,13.32
2019-05-07T18:27:43.192Z,13.05
2019-05-07T18:32:53.246Z,13.15
2019-05-07T18:37:57.667Z,14.38
2019-05-07T18:43:03.054Z,15.13
2019-05-07T18:48:07.263Z,12.45
2019-05-07T18:53:12.248Z,10.60
2019-05-07T18:58:16.547Z,11.63
2019-05-07T19:03:21.826Z,12.23
2019-05-07T19:08:26.341Z,11.20
2019-05-07T19:13:32.497Z,14.70
2019-05-07T19:18:36.219Z,9.78
2019-05-07T19:23:42.359Z,10.50
2019-05-07T19:28:46.343Z,10.10
2019-05-07T19:33:52.521Z,9.43
2019-05-07T19:38:58.732Z,10.30
2019-05-07T19:44:02.802Z,12.23
2019-05-07T19:49:07.305Z,15.85
2019-05-07T19:59:14.898Z,16.02
2019-05-07T20:04:20.598Z,14.47
2019-05-07T20:09:29.385Z,11.70
2019-05-07T20:14:36.243Z,15.88
2019-05-07T20:19:41.770Z,14.90
2019-05-07T20:24:47.017Z,15.70
2019-05-07T20:29:52.234Z,12.82
2019-05-07T20:34:56.544Z,14.47
2019-05-07T20:40:03.042Z,15.53
2019-05-07T20:45:07.396Z,12.93
2019-05-07T20:50:12.712Z,12.90
2019-05-07T20:55:33.888Z,17.45
2019-05-07T21:00:37.065Z,14.18
2019-05-07T21:05:42.158Z,13.38
2019-05-07T21:10:46.454Z,15.68
2019-05-07T21:15:52.683Z,16.37
2019-05-07T21:20:57.084Z,19.77
2019-05-07T21:26:02.197Z,20.12
2019-05-07T21:31:06.461Z,14.60
2019-05-07T21:36:12.099Z,16.75
2019-05-07T21:41:16.436Z,18.32
2019-05-07T21:46:22.235Z,19.65
2019-05-07T21:51:26.479Z,18.77
2019-05-07T21:56:41.247Z,17.90
2019-05-07T22:01:47.321Z,18.95
2019-05-07T22:06:52.374Z,16.60
2019-05-07T22:11:57.971Z,18.55
2019-05-07T22:17:02.161Z,21.90
2019-05-07T22:22:06.326Z,23.27
2019-05-07T22:27:12.653Z,23.77
2019-05-07T22:32:27.623Z,17.37
2019-05-07T22:37:32.515Z,17.45
2019-05-07T22:42:37.095Z,16.97
2019-05-07T22:47:42.050Z,16.50
2019-05-07T22:52:46.543Z,15.32
2019-05-07T22:58:12.341Z,15.65
2019-05-07T23:03:15.896Z,13.90
2019-05-07T23:08:22.135Z,12.50
2019-05-07T23:13:25.872Z,14.07
2019-05-07T23:18:31.875Z,14.25
2019-05-07T23:23:35.984Z,17.20
2019-05-07T23:28:41.873Z,15.13
2019-05-07T23:33:46.559Z,15.15
2019-05-07T23:38:52.068Z,12.68
2019-05-07T23:44:14.155Z,13.55
2019-05-07T23:49:18.467Z,15.35
2019-05-07T23:54:23.140Z,14.18
2019-05-07T23:59:27.516Z,15.90
